createdAt,value
2018-05-15T00:02:21.724Z,118.50
2018-05-15T00:04:49.280Z,115.23
2018-05-15T00:07:16.872Z,119.20
2018-05-15T00:09:44.429Z,120.87
2018-05-15T00:12:11.997Z,113.90
2018-05-15T00:14:39.585Z,114.27
2018-05-15T00:17:07.528Z,116.40
2018-05-15T00:19:35.090Z,145.85
2018-05-15T00:22:02.685Z,122.13
2018-05-15T00:24:30.260Z,122.07
2018-05-15T00:26:57.793Z,118.50
2018-05-15T00:29:25.378Z,140.20
2018-05-15T00:31:53.709Z,120.60
2018-05-15T00:34:21.267Z,115.60
2018-05-15T00:36:48.869Z,118.30
2018-05-15T00:39:16.432Z,116.80
2018-05-15T00:41:43.991Z,119.50
2018-05-15T00:44:12.092Z,126.87
2018-05-15T00:46:39.612Z,116.97
2018-05-15T00:49:07.169Z,134.27
2018-05-15T00:51:34.755Z,124.17
2018-05-15T00:54:03.080Z,140.57
2018-05-15T00:56:30.671Z,116.80
2018-05-15T00:58:58.260Z,117.27
2018-05-15T01:01:25.824Z,112.53
2018-05-15T01:03:53.409Z,110.17
2018-05-15T01:06:21.035Z,113.83
2018-05-15T01:08:48.601Z,113.07
2018-05-15T01:11:16.161Z,111.67
2018-05-15T01:13:43.749Z,121.13
2018-05-15T01:16:11.310Z,127.37
2018-05-15T01:18:38.890Z,131.63
2018-05-15T01:21:06.476Z,120.27
2018-05-15T01:23:34.033Z,124.83
2018-05-15T01:26:01.594Z,124.20
2018-05-15T01:28:29.222Z,117.87
2018-05-15T01:30:56.781Z,117.47
2018-05-15T01:33:24.351Z,115.30
2018-05-15T01:35:51.945Z,127.20
2018-05-15T01:38:19.505Z,123.53
2018-05-15T01:40:47.070Z,123.87
2018-05-15T01:43:14.668Z,125.33
2018-05-15T01:45:42.239Z,121.50
2018-05-15T01:48:09.798Z,116.77
2018-05-15T01:50:38.179Z,86.57
2018-05-15T01:53:06.505Z,75.77
2018-05-15T01:55:34.066Z,68.03
2018-05-15T01:58:01.648Z,72.67
2018-05-15T02:00:29.205Z,79.23
2018-05-15T02:02:56.760Z,78.53
2018-05-15T02:05:24.346Z,75.33
2018-05-15T02:07:51.900Z,71.40
2018-05-15T02:10:19.461Z,67.97
2018-05-15T02:12:47.393Z,67.03
2018-05-15T02:15:14.953Z,71.67
2018-05-15T02:17:42.514Z,76.10
2018-05-15T02:20:10.099Z,86.93
2018-05-15T02:22:37.648Z,95.50
2018-05-15T02:25:05.206Z,103.80
2018-05-15T02:27:32.801Z,111.13
2018-05-15T02:30:00.360Z,114.43
2018-05-15T02:32:27.910Z,93.70
2018-05-15T02:34:55.526Z,80.03
2018-05-15T02:37:23.079Z,95.57
2018-05-15T02:39:50.628Z,90.40
2018-05-15T02:42:18.218Z,107.23
2018-05-15T02:44:45.780Z,123.00
2018-05-15T02:47:13.344Z,126.10
2018-05-15T02:49:41.014Z,128.87
2018-05-15T02:52:08.496Z,120.80
2018-05-15T02:54:36.278Z,82.70
2018-05-15T02:57:03.885Z,73.03
2018-05-15T02:59:31.440Z,71.03
2018-05-15T03:01:58.999Z,66.67
2018-05-15T03:04:26.647Z,59.73
2018-05-15T03:06:54.969Z,65.27
2018-05-15T03:09:22.511Z,71.63
2018-05-15T03:11:50.095Z,66.30
2018-05-15T03:14:17.655Z,74.50
2018-05-15T03:16:45.204Z,66.03
2018-05-15T03:19:13.086Z,61.33
2018-05-15T03:21:40.639Z,68.73
2018-05-15T03:24:08.194Z,75.40
2018-05-15T03:26:35.778Z,67.23
2018-05-15T03:29:03.333Z,71.33
2018-05-15T03:31:30.886Z,65.27
2018-05-15T03:33:58.474Z,62.63
2018-05-15T03:36:26.028Z,66.13
2018-05-15T03:38:53.576Z,79.00
2018-05-15T03:41:21.543Z,103.97
2018-05-15T03:43:49.094Z,63.43
2018-05-15T03:46:16.659Z,67.80
2018-05-15T03:48:44.240Z,62.53
2018-05-15T03:51:11.804Z,81.67
2018-05-15T03:53:39.393Z,74.20
2018-05-15T03:56:06.998Z,65.70
2018-05-15T03:58:34.555Z,201.73
2018-05-15T04:01:39.925Z,76.67
2018-05-15T04:04:44.516Z,93.20
2018-05-15T04:07:49.211Z,104.50
2018-05-15T04:10:16.775Z,68.13
2018-05-15T04:12:45.094Z,80.90
2018-05-15T04:15:12.681Z,84.17
2018-05-15T04:17:40.254Z,60.30
2018-05-15T04:20:07.813Z,60.83
2018-05-15T04:22:35.433Z,95.20
2018-05-15T04:25:02.993Z,92.07
2018-05-15T04:27:30.553Z,107.00
2018-05-15T04:29:58.152Z,100.43
2018-05-15T04:32:25.730Z,97.83
2018-05-15T04:34:53.286Z,74.77
2018-05-15T04:37:20.877Z,79.13
2018-05-15T04:39:49.209Z,88.73
2018-05-15T04:42:16.764Z,94.57
2018-05-15T04:44:44.730Z,91.57
2018-05-15T04:47:12.308Z,101.73
2018-05-15T04:49:39.863Z,83.47
2018-05-15T04:52:07.458Z,85.93
2018-05-15T04:54:35.013Z,97.40
2018-05-15T04:57:02.580Z,83.17
2018-05-15T04:59:30.621Z,95.12
2018-05-15T05:01:58.251Z,77.47
2018-05-15T05:04:25.749Z,76.40
2018-05-15T05:06:53.357Z,72.43
2018-05-15T05:09:22.777Z,72.20
2018-05-15T05:11:50.369Z,75.23
2018-05-15T05:14:19.036Z,70.57
2018-05-15T05:16:46.595Z,70.13
2018-05-15T05:19:15.376Z,67.13
2018-05-15T05:21:41.780Z,66.17
2018-05-15T05:24:10.104Z,65.50
2018-05-15T05:26:37.668Z,62.73
2018-05-15T05:29:05.652Z,62.57
2018-05-15T05:31:33.214Z,62.60
2018-05-15T05:34:00.768Z,69.47
2018-05-15T05:36:28.397Z,61.07
2018-05-15T05:38:55.957Z,59.23
2018-05-15T05:41:23.519Z,65.63
2018-05-15T05:43:51.113Z,63.10
2018-05-15T05:46:18.766Z,65.23
2018-05-15T05:48:47.638Z,60.73
2018-05-15T05:51:15.843Z,58.40
2018-05-15T05:53:43.396Z,58.07
2018-05-15T05:56:10.953Z,56.63
2018-05-15T05:58:39.547Z,59.03
2018-05-15T06:01:07.120Z,59.03
2018-05-15T06:03:34.676Z,56.07
2018-05-15T06:06:02.754Z,56.83
2018-05-15T06:08:30.309Z,51.60
2018-05-15T06:10:57.875Z,53.50
2018-05-15T06:13:25.947Z,54.97
2018-05-15T06:15:53.507Z,50.97
2018-05-15T06:18:21.079Z,50.30
2018-05-15T06:20:50.076Z,45.40
2018-05-15T06:23:17.511Z,51.30
2018-05-15T06:25:45.065Z,42.80
2018-05-15T06:28:12.704Z,47.07
2018-05-15T06:30:41.037Z,39.43
2018-05-15T06:33:09.933Z,44.43
2018-05-15T06:35:37.985Z,41.83
2018-05-15T06:38:05.531Z,40.53
2018-05-15T06:40:40.350Z,38.77
2018-05-15T06:43:08.364Z,40.80
2018-05-15T06:45:35.918Z,35.07
2018-05-15T06:48:03.472Z,39.93
2018-05-15T06:50:31.114Z,36.23
2018-05-15T06:52:58.665Z,31.90
2018-05-15T06:55:26.220Z,34.33
2018-05-15T06:57:53.855Z,32.87
2018-05-15T07:00:21.416Z,33.90
2018-05-15T07:02:48.976Z,26.03
2018-05-15T07:05:17.345Z,27.97
2018-05-15T07:07:44.974Z,25.27
2018-05-15T07:10:12.472Z,23.73
2018-05-15T07:12:40.077Z,21.67
2018-05-15T07:15:07.636Z,19.48
2018-05-15T07:17:35.187Z,16.50
2018-05-15T07:20:03.559Z,16.60
2018-05-15T07:22:31.885Z,14.43
2018-05-15T07:24:59.447Z,10.83
2018-05-15T07:27:27.103Z,19.13
2018-05-15T07:29:54.604Z,9.97
2018-05-15T07:32:22.173Z,11.27
2018-05-15T07:34:50.551Z,8.68
2018-05-15T07:37:18.111Z,9.00
2018-05-15T07:39:45.662Z,12.17
2018-05-15T07:42:13.786Z,12.83
2018-05-15T07:44:41.352Z,10.75
2018-05-15T07:47:08.904Z,13.93
2018-05-15T07:49:36.498Z,8.40
2018-05-15T07:52:04.059Z,10.13
2018-05-15T07:54:31.634Z,8.83
2018-05-15T07:57:00.036Z,10.70
2018-05-15T07:59:28.361Z,7.90
2018-05-15T08:01:55.911Z,10.57
2018-05-15T08:04:23.556Z,9.67
2018-05-15T08:06:51.084Z,7.53
2018-05-15T08:09:18.642Z,13.93
2018-05-15T08:11:46.231Z,9.53
2018-05-15T08:14:14.555Z,9.23
2018-05-15T08:16:42.092Z,9.70
2018-05-15T08:19:09.992Z,11.83
2018-05-15T08:21:37.557Z,9.43
2018-05-15T08:24:05.117Z,11.60
2018-05-15T08:26:33.592Z,9.37
2018-05-15T08:29:01.145Z,8.73
2018-05-15T08:31:28.715Z,13.93
2018-05-15T08:33:57.609Z,9.53
2018-05-15T08:36:25.227Z,11.00
2018-05-15T08:38:53.551Z,11.00
2018-05-15T08:41:22.132Z,8.50
2018-05-15T08:43:49.722Z,11.67
2018-05-15T08:46:17.271Z,8.83
2018-05-15T08:48:44.867Z,8.90
2018-05-15T08:51:13.192Z,11.43
2018-05-15T08:53:40.734Z,17.33
2018-05-15T08:56:08.337Z,16.23
2018-05-15T08:58:35.928Z,13.67
2018-05-15T09:01:04.246Z,9.27
2018-05-15T09:03:31.901Z,8.50
2018-05-15T09:06:00.208Z,10.23
2018-05-15T09:08:27.753Z,12.60
2018-05-15T09:10:55.346Z,11.47
2018-05-15T09:13:22.900Z,12.00
2018-05-15T09:15:50.691Z,10.43
2018-05-15T09:18:18.362Z,14.07
2018-05-15T09:20:45.851Z,14.23
2018-05-15T09:23:13.407Z,14.93
2018-05-15T09:25:41.468Z,10.90
2018-05-15T09:28:09.036Z,9.50
2018-05-15T09:30:36.592Z,9.83
2018-05-15T09:33:05.368Z,13.40
2018-05-15T09:35:32.915Z,10.87
2018-05-15T09:38:00.750Z,8.53
2018-05-15T09:40:28.400Z,9.27
2018-05-15T09:42:55.955Z,10.83
2018-05-15T09:45:23.503Z,13.70
2018-05-15T09:47:51.613Z,11.70
2018-05-15T09:50:19.172Z,11.87
2018-05-15T09:52:46.739Z,5.97
2018-05-15T09:55:15.215Z,10.50
2018-05-15T09:57:42.766Z,8.50
2018-05-15T10:00:10.751Z,10.00
2018-05-15T10:02:38.378Z,10.57
2018-05-15T10:05:05.920Z,8.88
2018-05-15T10:07:34.295Z,8.13
2018-05-15T10:10:01.923Z,9.37
2018-05-15T10:12:29.463Z,12.20
2018-05-15T10:14:57.029Z,7.17
2018-05-15T10:17:24.647Z,8.53
2018-05-15T10:19:52.981Z,9.07
2018-05-15T10:22:20.514Z,9.50
2018-05-15T10:24:48.495Z,8.30
2018-05-15T10:27:16.050Z,9.10
2018-05-15T10:29:43.610Z,11.20
2018-05-15T10:32:11.242Z,10.73
2018-05-15T10:34:39.555Z,7.83
2018-05-15T10:37:07.111Z,7.00
2018-05-15T10:39:35.100Z,6.50
2018-05-15T10:42:02.656Z,8.40
2018-05-15T10:44:30.204Z,9.97
2018-05-15T10:46:57.822Z,8.63
2018-05-15T10:49:25.373Z,7.37
2018-05-15T10:51:52.960Z,9.20
2018-05-15T10:54:20.533Z,6.50
2018-05-15T10:56:48.086Z,5.33
2018-05-15T10:59:16.439Z,8.97
2018-05-15T11:01:44.051Z,6.33
2018-05-15T11:04:11.606Z,7.33
2018-05-15T11:06:39.165Z,9.47
2018-05-15T11:09:06.765Z,8.47
2018-05-15T11:11:34.320Z,6.33
2018-05-15T11:14:04.287Z,11.80
2018-05-15T11:16:33.645Z,6.73
2018-05-15T11:19:38.117Z,6.30
2018-05-15T11:22:37.428Z,7.23
2018-05-15T11:25:04.982Z,8.07
2018-05-15T11:27:33.302Z,5.97
2018-05-15T11:30:00.949Z,9.53
2018-05-15T11:32:28.501Z,9.03
2018-05-15T11:34:59.636Z,8.17
2018-05-15T11:37:24.375Z,9.43
2018-05-15T11:39:51.936Z,12.17
2018-05-15T11:42:19.487Z,7.67
2018-05-15T11:44:47.117Z,8.93
2018-05-15T11:47:14.770Z,5.87
2018-05-15T11:49:43.343Z,10.67
2018-05-15T11:52:11.268Z,7.97
2018-05-15T11:54:38.913Z,7.03
2018-05-15T11:57:06.470Z,8.83
2018-05-15T11:59:34.092Z,8.17
2018-05-15T12:02:01.646Z,6.10
2018-05-15T12:04:29.193Z,8.33
2018-05-15T12:06:56.784Z,8.68
2018-05-15T12:09:25.121Z,9.30
2018-05-15T12:11:52.672Z,8.77
2018-05-15T12:14:20.267Z,7.40
2018-05-15T12:16:47.814Z,6.93
2018-05-15T12:19:15.363Z,6.07
2018-05-15T12:21:42.990Z,5.40
2018-05-15T12:24:10.557Z,9.10
2018-05-15T12:26:38.112Z,5.40
2018-05-15T12:29:07.145Z,6.70
2018-05-15T12:31:34.702Z,6.67
2018-05-15T12:34:02.263Z,9.63
2018-05-15T12:36:29.882Z,5.47
2018-05-15T12:38:57.431Z,7.17
2018-05-15T12:41:25.027Z,5.17
2018-05-15T12:43:53.526Z,7.90
2018-05-15T12:46:21.073Z,7.47
2018-05-15T12:48:48.694Z,12.03
2018-05-15T12:51:16.222Z,6.97
2018-05-15T12:53:43.770Z,10.97
2018-05-15T12:56:11.316Z,6.07
2018-05-15T12:58:39.315Z,12.27
2018-05-15T13:01:06.890Z,12.03
2018-05-15T13:03:34.445Z,4.20
2018-05-15T13:06:02.042Z,7.03
2018-05-15T13:08:30.356Z,4.60
2018-05-15T13:10:57.899Z,6.80
2018-05-15T13:13:25.530Z,7.83
2018-05-15T13:15:53.093Z,4.37
2018-05-15T13:18:20.758Z,5.13
2018-05-15T13:20:48.254Z,6.97
2018-05-15T13:23:15.805Z,6.50
2018-05-15T13:25:43.352Z,8.97
2018-05-15T13:28:11.711Z,6.33
2018-05-15T13:30:39.262Z,10.67
2018-05-15T13:33:06.818Z,6.53
2018-05-15T13:35:34.423Z,8.03
2018-05-15T13:38:02.743Z,4.17
2018-05-15T13:40:30.286Z,4.70
2018-05-15T13:42:57.906Z,5.20
2018-05-15T13:45:25.456Z,4.03
2018-05-15T13:47:55.844Z,8.40
2018-05-15T13:50:24.114Z,3.67
2018-05-15T13:52:51.582Z,4.03
2018-05-15T13:55:19.162Z,4.13
2018-05-15T13:57:46.726Z,5.20
2018-05-15T14:00:14.278Z,4.50
2018-05-15T14:02:41.828Z,4.30
2018-05-15T14:05:09.879Z,5.17
2018-05-15T14:07:37.425Z,3.90
2018-05-15T14:10:08.341Z,4.57
2018-05-15T14:12:35.901Z,3.33
2018-05-15T14:15:03.389Z,4.90
2018-05-15T14:17:30.976Z,4.90
2018-05-15T14:19:58.631Z,4.70
2018-05-15T14:22:26.131Z,4.83
2018-05-15T14:24:53.696Z,4.03
2018-05-15T14:27:21.336Z,8.90
2018-05-15T14:29:48.892Z,4.07
2018-05-15T14:32:16.446Z,6.57
2018-05-15T14:34:45.163Z,4.77
2018-05-15T14:37:13.078Z,5.47
2018-05-15T14:39:40.598Z,8.17
2018-05-15T14:42:45.216Z,4.63
2018-05-15T14:45:15.516Z,6.27
2018-05-15T14:47:43.062Z,5.63
2018-05-15T14:50:10.970Z,4.73
2018-05-15T14:52:38.523Z,3.47
2018-05-15T14:55:06.076Z,3.33
2018-05-15T14:57:33.741Z,5.25
2018-05-15T15:00:01.302Z,4.10
2018-05-15T15:02:28.838Z,5.50
2018-05-15T15:04:56.453Z,4.07
2018-05-15T15:07:24.018Z,3.90
2018-05-15T15:09:51.574Z,6.18
2018-05-15T15:12:19.179Z,3.83
2018-05-15T15:14:46.730Z,4.93
2018-05-15T15:17:14.282Z,4.60
2018-05-15T15:19:43.788Z,4.20
2018-05-15T15:22:12.107Z,5.63
2018-05-15T15:24:39.654Z,4.00
2018-05-15T15:27:07.250Z,3.53
2018-05-15T15:29:34.822Z,3.20
2018-05-15T15:32:02.345Z,3.77
2018-05-15T15:34:29.984Z,4.23
2018-05-15T15:36:57.555Z,6.30
2018-05-15T15:39:25.109Z,3.10
2018-05-15T15:41:52.708Z,3.30
2018-05-15T15:44:20.250Z,4.03
2018-05-15T15:46:47.835Z,6.10
2018-05-15T15:49:16.004Z,3.23
2018-05-15T15:51:43.548Z,3.83
2018-05-15T15:54:11.098Z,6.07
2018-05-15T15:56:38.688Z,3.97
2018-05-15T15:59:06.244Z,4.30
2018-05-15T16:01:34.046Z,5.13
2018-05-15T16:04:01.673Z,6.80
2018-05-15T16:06:29.212Z,5.50
2018-05-15T16:08:56.763Z,5.17
2018-05-15T16:11:24.368Z,7.77
2018-05-15T16:13:51.923Z,3.57
2018-05-15T16:16:19.931Z,4.50
2018-05-15T16:18:47.489Z,5.17
2018-05-15T16:21:15.046Z,5.30
2018-05-15T16:23:42.595Z,4.93
2018-05-15T16:26:10.751Z,5.33
2018-05-15T16:28:38.365Z,5.53
2018-05-15T16:31:05.865Z,4.50
2018-05-15T16:33:34.448Z,4.13
2018-05-15T16:36:02.000Z,9.40
2018-05-15T16:38:29.548Z,3.60
2018-05-15T16:40:58.060Z,5.10
2018-05-15T16:43:25.707Z,3.97
2018-05-15T16:45:53.201Z,4.27
2018-05-15T16:48:20.801Z,4.33
2018-05-15T16:50:48.357Z,5.33
2018-05-15T16:53:15.982Z,7.77
2018-05-15T16:55:53.787Z,4.93
2018-05-15T16:58:21.348Z,6.20
2018-05-15T17:00:48.896Z,7.30
2018-05-15T17:03:16.512Z,4.40
2018-05-15T17:05:44.839Z,4.17
2018-05-15T17:08:12.414Z,3.73
2018-05-15T17:10:39.998Z,4.47
2018-05-15T17:13:08.329Z,3.93
2018-05-15T17:15:35.874Z,4.23
2018-05-15T17:18:03.492Z,7.37
2018-05-15T17:20:31.039Z,8.77
2018-05-15T17:22:58.589Z,6.83
2018-05-15T17:25:26.227Z,5.07
2018-05-15T17:27:53.807Z,5.87
2018-05-15T17:30:21.365Z,6.10
2018-05-15T17:32:48.974Z,6.13
2018-05-15T17:35:17.332Z,7.03
2018-05-15T17:37:44.996Z,5.70
2018-05-15T17:40:12.593Z,6.77
2018-05-15T17:42:40.144Z,7.35
2018-05-15T17:45:08.467Z,5.72
2018-05-15T17:47:36.089Z,6.13
2018-05-15T17:50:04.406Z,4.50
2018-05-15T17:52:31.981Z,6.00
2018-05-15T17:54:59.571Z,4.40
2018-05-15T17:57:27.128Z,7.10
2018-05-15T17:59:54.760Z,6.33
2018-05-15T18:02:22.281Z,4.17
2018-05-15T18:04:49.846Z,7.57
2018-05-15T18:07:17.567Z,7.07
2018-05-15T18:09:45.161Z,5.40
2018-05-15T18:12:13.483Z,4.97
2018-05-15T18:14:41.057Z,7.78
2018-05-15T18:17:08.693Z,6.37
2018-05-15T18:19:36.980Z,7.22
2018-05-15T18:22:04.521Z,5.90
2018-05-15T18:24:32.164Z,5.90
2018-05-15T18:27:00.491Z,6.23
2018-05-15T18:29:28.036Z,8.47
2018-05-15T18:31:55.651Z,7.70
2018-05-15T18:34:23.205Z,5.97
2018-05-15T18:36:50.758Z,7.00
2018-05-15T18:39:18.356Z,9.30
2018-05-15T18:41:45.905Z,8.50
2018-05-15T18:44:14.221Z,4.97
2018-05-15T18:46:41.886Z,7.47
2018-05-15T18:49:10.192Z,9.07
2018-05-15T18:51:37.719Z,7.40
2018-05-15T18:54:06.026Z,7.10
2018-05-15T18:56:33.576Z,8.90
2018-05-15T18:59:01.134Z,7.80
2018-05-15T19:01:28.745Z,10.63
2018-05-15T19:03:57.075Z,5.93
2018-05-15T19:06:24.630Z,7.43
2018-05-15T19:08:52.706Z,6.53
2018-05-15T19:11:20.267Z,10.90
2018-05-15T19:13:47.851Z,5.40
2018-05-15T19:16:15.633Z,6.17
2018-05-15T19:18:43.191Z,5.40
2018-05-15T19:21:10.750Z,6.93
2018-05-15T19:23:38.779Z,8.43
2018-05-15T19:26:06.345Z,7.18
2018-05-15T19:28:33.904Z,6.70
2018-05-15T19:31:01.890Z,5.90
2018-05-15T19:33:35.217Z,5.87
2018-05-15T19:36:11.789Z,5.67
2018-05-15T19:38:39.334Z,8.68
2018-05-15T19:41:06.885Z,5.40
2018-05-15T19:43:34.501Z,7.00
2018-05-15T19:46:03.547Z,6.63
2018-05-15T19:48:31.098Z,5.67
2018-05-15T19:50:58.710Z,5.87
2018-05-15T19:53:27.032Z,9.13
2018-05-15T19:55:54.575Z,6.40
2018-05-15T19:58:22.213Z,8.97
2018-05-15T20:00:50.548Z,7.80
2018-05-15T20:03:18.095Z,10.07
2018-05-15T20:05:46.593Z,10.47
2018-05-15T20:08:14.147Z,8.37
2018-05-15T20:10:41.718Z,8.37
2018-05-15T20:13:10.093Z,7.93
2018-05-15T20:15:37.651Z,10.70
2018-05-15T20:18:05.212Z,8.20
2018-05-15T20:20:33.183Z,8.70
2018-05-15T20:23:00.754Z,6.97
2018-05-15T20:25:28.299Z,7.80
2018-05-15T20:27:55.898Z,10.40
2018-05-15T20:30:23.451Z,8.73
2018-05-15T20:32:51.017Z,7.77
2018-05-15T20:35:18.642Z,8.10
2018-05-15T20:37:46.191Z,5.87
2018-05-15T20:40:13.735Z,5.57
2018-05-15T20:42:41.353Z,8.20
2018-05-15T20:45:08.951Z,6.93
2018-05-15T20:47:36.472Z,8.37
2018-05-15T20:50:04.078Z,6.60
2018-05-15T20:52:32.442Z,12.27
2018-05-15T20:55:00.765Z,6.53
2018-05-15T20:57:28.370Z,6.87
2018-05-15T20:59:55.930Z,6.83
2018-05-15T21:02:23.489Z,7.10
2018-05-15T21:04:51.119Z,7.67
2018-05-15T21:07:18.672Z,8.93
2018-05-15T21:09:46.219Z,9.00
2018-05-15T21:12:13.822Z,8.73
2018-05-15T21:14:41.371Z,6.60
2018-05-15T21:17:08.931Z,9.00
2018-05-15T21:19:36.757Z,10.97
2018-05-15T21:22:04.662Z,6.90
2018-05-15T21:24:32.219Z,9.57
2018-05-15T21:26:59.837Z,10.00
2018-05-15T21:29:28.161Z,7.73
2018-05-15T21:31:55.772Z,8.00
2018-05-15T21:34:24.610Z,9.30
2018-05-15T21:36:52.174Z,10.33
2018-05-15T21:39:19.720Z,8.97
2018-05-15T21:41:48.138Z,6.53
2018-05-15T21:44:15.681Z,9.13
2018-05-15T21:46:43.251Z,7.93
2018-05-15T21:49:10.863Z,12.00
2018-05-15T21:51:39.607Z,8.88
2018-05-15T21:54:07.175Z,8.83
2018-05-15T21:56:34.870Z,8.60
2018-05-15T21:59:03.196Z,10.67
2018-05-15T22:01:30.750Z,11.00
2018-05-15T22:03:58.336Z,9.10
2018-05-15T22:06:25.882Z,8.97
2018-05-15T22:08:53.428Z,8.90
2018-05-15T22:11:20.514Z,10.93
2018-05-15T22:14:25.496Z,8.10
2018-05-15T22:17:30.133Z,8.50
2018-05-15T22:20:34.790Z,6.93
2018-05-15T22:23:02.589Z,10.33
2018-05-15T22:25:30.141Z,9.13
2018-05-15T22:27:57.703Z,9.03
2018-05-15T22:30:25.299Z,9.32
2018-05-15T22:32:53.625Z,10.70
2018-05-15T22:35:21.201Z,14.10
2018-05-15T22:37:49.257Z,10.90
2018-05-15T22:40:16.805Z,9.50
2018-05-15T22:42:44.362Z,9.90
2018-05-15T22:45:11.945Z,11.00
2018-05-15T22:47:39.500Z,10.83
2018-05-15T22:50:07.050Z,9.13
2018-05-15T22:52:34.642Z,13.13
2018-05-15T22:55:02.193Z,10.33
2018-05-15T22:57:29.756Z,11.40
2018-05-15T22:59:57.370Z,12.63
2018-05-15T23:02:24.933Z,11.40
2018-05-15T23:04:52.479Z,16.27
2018-05-15T23:07:20.842Z,11.40
2018-05-15T23:09:48.385Z,9.93
2018-05-15T23:12:15.946Z,12.17
2018-05-15T23:14:43.530Z,13.07
2018-05-15T23:17:11.091Z,11.20
2018-05-15T23:19:38.662Z,13.27
2018-05-15T23:22:06.265Z,10.67
2018-05-15T23:24:33.813Z,12.30
2018-05-15T23:27:01.372Z,15.63
2018-05-15T23:29:28.975Z,11.70
2018-05-15T23:31:56.519Z,15.50
2018-05-15T23:34:24.079Z,14.30
2018-05-15T23:36:51.671Z,20.63
2018-05-15T23:39:19.231Z,22.67
2018-05-15T23:41:46.787Z,26.60
2018-05-15T23:44:14.392Z,18.27
2018-05-15T23:46:41.961Z,17.65
2018-05-15T23:49:09.516Z,16.40
2018-05-15T23:51:37.120Z,12.83
2018-05-15T23:54:04.684Z,11.60
2018-05-15T23:56:32.237Z,14.07
2018-05-15T23:58:59.826Z,13.40
